createdAt,value
2022-12-27T00:01:45.800Z,77.30
2022-12-27T00:04:13.819Z,77.50
2022-12-27T00:06:43.262Z,77.40
2022-12-27T00:09:11.299Z,77.20
2022-12-27T00:11:40.073Z,77.40
2022-12-27T00:14:08.339Z,77.20
2022-12-27T00:16:36.436Z,77.80
2022-12-27T00:19:04.617Z,77.20
2022-12-27T00:21:32.658Z,77.20
2022-12-27T00:24:02.091Z,77.20
2022-12-27T00:26:31.921Z,77.10
2022-12-27T00:29:00.074Z,76.80
2022-12-27T00:31:29.291Z,77.10
2022-12-27T00:33:58.279Z,77.10
2022-12-27T00:36:27.571Z,77.20
2022-12-27T00:38:55.752Z,77.20
2022-12-27T00:41:25.217Z,76.90
2022-12-27T00:43:53.413Z,77.00
2022-12-27T00:46:21.541Z,77.20
2022-12-27T00:48:49.605Z,77.40
2022-12-27T00:51:18.617Z,77.30
2022-12-27T00:53:46.669Z,77.00
2022-12-27T00:56:16.766Z,76.90
2022-12-27T00:58:46.336Z,76.80
2022-12-27T01:01:15.686Z,77.10
2022-12-27T01:03:43.848Z,77.30
2022-12-27T01:06:18.478Z,77.30
2022-12-27T01:08:46.647Z,77.00
2022-12-27T01:11:15.067Z,77.00
2022-12-27T01:13:43.262Z,77.10
2022-12-27T01:16:14.186Z,76.90
2022-12-27T01:18:42.253Z,76.90
2022-12-27T01:21:10.795Z,77.20
2022-12-27T01:23:38.962Z,77.10
2022-12-27T01:26:07.943Z,77.00
2022-12-27T01:28:36.188Z,77.00
2022-12-27T01:31:06.459Z,76.60
2022-12-27T01:33:35.871Z,77.20
2022-12-27T01:36:11.641Z,77.10
2022-12-27T01:38:39.726Z,76.80
2022-12-27T01:41:21.668Z,76.80
2022-12-27T01:43:49.678Z,76.70
2022-12-27T01:46:18.060Z,76.90
2022-12-27T01:48:47.544Z,76.80
2022-12-27T01:51:15.603Z,76.90
2022-12-27T01:53:45.026Z,76.80
2022-12-27T01:56:14.396Z,76.20
2022-12-27T01:58:43.796Z,76.10
2022-12-27T02:01:13.848Z,76.40
2022-12-27T02:03:45.432Z,76.50
2022-12-27T02:06:15.072Z,76.50
2022-12-27T02:08:45.140Z,76.80
2022-12-27T02:11:13.199Z,76.70
2022-12-27T02:13:42.530Z,76.40
2022-12-27T02:16:12.820Z,76.10
2022-12-27T02:18:40.853Z,76.40
2022-12-27T02:21:33.317Z,76.40
2022-12-27T02:24:43.006Z,76.40
2022-12-27T02:27:15.292Z,76.50
2022-12-27T02:29:57.950Z,76.60
2022-12-27T02:32:29.378Z,76.60
2022-12-27T02:35:14.814Z,76.00
2022-12-27T02:37:44.794Z,76.40
2022-12-27T02:40:30.791Z,76.10
2022-12-27T02:43:16.390Z,76.40
2022-12-27T02:46:05.582Z,76.40
2022-12-27T02:48:52.219Z,76.10
2022-12-27T02:51:50.045Z,76.60
2022-12-27T02:54:27.198Z,76.40
2022-12-27T02:57:09.787Z,76.20
2022-12-27T03:00:21.314Z,76.80
2022-12-27T03:03:24.008Z,76.40
2022-12-27T03:06:39.417Z,76.20
2022-12-27T03:09:37.775Z,76.70
2022-12-27T03:12:24.805Z,76.40
2022-12-27T03:15:15.958Z,76.20
2022-12-27T03:17:46.983Z,76.40
2022-12-27T03:20:34.064Z,76.40
2022-12-27T03:23:19.628Z,76.10
2022-12-27T03:25:47.655Z,76.60
2022-12-27T03:28:35.073Z,76.00
2022-12-27T03:31:25.433Z,76.10
2022-12-27T03:33:59.754Z,76.40
2022-12-27T03:36:46.543Z,76.40
2022-12-27T03:39:16.133Z,76.60
2022-12-27T03:42:03.937Z,76.00
2022-12-27T03:44:31.992Z,76.10
2022-12-27T03:46:59.944Z,76.50
2022-12-27T03:49:32.083Z,76.50
2022-12-27T03:52:05.223Z,76.40
2022-12-27T03:54:34.654Z,76.20
2022-12-27T03:57:04.197Z,75.90
2022-12-27T03:59:32.214Z,76.50
2022-12-27T04:02:01.216Z,76.10
2022-12-27T04:04:29.419Z,76.40
2022-12-27T04:06:57.494Z,76.50
2022-12-27T04:09:44.442Z,76.20
2022-12-27T04:12:30.096Z,76.40
2022-12-27T04:15:15.375Z,76.40
2022-12-27T04:18:01.048Z,76.50
2022-12-27T04:20:46.334Z,76.40
2022-12-27T04:23:31.930Z,76.50
2022-12-27T04:26:18.883Z,76.00
2022-12-27T04:29:04.735Z,76.50
2022-12-27T04:31:50.260Z,76.50
2022-12-27T04:34:35.936Z,76.20
2022-12-27T04:37:04.022Z,76.40
2022-12-27T04:39:32.055Z,76.40
2022-12-27T04:42:18.972Z,76.60
2022-12-27T04:45:00.905Z,76.50
2022-12-27T04:47:46.162Z,76.40
2022-12-27T04:50:35.280Z,76.70
2022-12-27T04:53:20.864Z,76.40
2022-12-27T04:55:48.933Z,76.70
2022-12-27T04:58:18.378Z,76.50
2022-12-27T05:01:18.336Z,76.50
2022-12-27T05:03:46.789Z,76.20
2022-12-27T05:06:14.947Z,76.50
2022-12-27T05:09:00.790Z,76.50
2022-12-27T05:11:46.560Z,76.20
2022-12-27T05:14:16.223Z,76.20
2022-12-27T05:16:44.779Z,76.50
2022-12-27T05:19:13.828Z,76.40
2022-12-27T05:22:03.154Z,76.40
2022-12-27T05:24:48.772Z,76.10
2022-12-27T05:27:16.829Z,76.40
2022-12-27T05:29:46.772Z,76.10
2022-12-27T05:32:14.803Z,76.20
2022-12-27T05:34:42.869Z,76.60
2022-12-27T05:37:10.895Z,76.60
2022-12-27T05:39:38.944Z,76.40
2022-12-27T05:42:07.098Z,76.70
2022-12-27T05:44:35.183Z,76.20
2022-12-27T05:47:04.638Z,76.70
2022-12-27T05:49:32.704Z,76.70
2022-12-27T05:52:00.716Z,76.60
2022-12-27T05:54:28.760Z,76.70
2022-12-27T05:56:56.774Z,76.40
2022-12-27T05:59:24.859Z,76.60
2022-12-27T06:01:53.096Z,76.50
2022-12-27T06:04:22.620Z,76.50
2022-12-27T06:06:50.665Z,76.80
2022-12-27T06:09:18.706Z,76.60
2022-12-27T06:11:46.741Z,76.70
2022-12-27T06:14:14.795Z,76.70
2022-12-27T06:16:42.874Z,76.80
2022-12-27T06:19:10.913Z,76.60
2022-12-27T06:21:40.418Z,76.80
2022-12-27T06:24:09.099Z,76.40
2022-12-27T06:26:37.125Z,76.60
2022-12-27T06:29:05.697Z,76.70
2022-12-27T06:31:33.800Z,76.10
2022-12-27T06:34:01.868Z,76.50
2022-12-27T06:36:30.303Z,76.50
2022-12-27T06:38:59.807Z,76.70
2022-12-27T06:41:27.865Z,76.70
2022-12-27T06:43:56.676Z,76.80
2022-12-27T06:46:25.374Z,76.80
2022-12-27T06:48:53.573Z,76.40
2022-12-27T06:51:22.055Z,76.80
2022-12-27T06:53:50.233Z,76.70
2022-12-27T06:56:20.835Z,76.70
2022-12-27T06:58:49.098Z,76.60
2022-12-27T07:01:18.900Z,76.50
2022-12-27T07:03:50.173Z,76.50
2022-12-27T07:06:23.916Z,76.50
2022-12-27T07:08:52.128Z,76.50
2022-12-27T07:11:21.710Z,76.50
2022-12-27T07:13:50.661Z,76.60
2022-12-27T07:16:22.527Z,76.40
2022-12-27T07:18:50.762Z,76.60
2022-12-27T07:21:19.935Z,76.40
2022-12-27T07:23:48.133Z,76.60
2022-12-27T07:26:17.496Z,76.70
2022-12-27T07:28:46.910Z,76.40
2022-12-27T07:31:15.912Z,76.60
2022-12-27T07:33:44.385Z,76.70
2022-12-27T07:36:14.567Z,76.60
2022-12-27T07:38:42.587Z,76.70
2022-12-27T07:41:11.361Z,76.40
2022-12-27T07:43:39.447Z,76.40
2022-12-27T07:46:10.240Z,76.70
2022-12-27T07:48:38.340Z,76.50
2022-12-27T07:51:06.616Z,76.70
2022-12-27T07:53:34.662Z,76.60
2022-12-27T07:56:07.377Z,76.70
2022-12-27T07:58:38.373Z,76.50
2022-12-27T08:01:07.911Z,76.50
2022-12-27T08:03:36.133Z,76.40
2022-12-27T08:06:04.279Z,76.80
2022-12-27T08:08:34.514Z,76.80
2022-12-27T08:11:05.686Z,76.50
2022-12-27T08:13:34.108Z,76.70
2022-12-27T08:16:02.190Z,76.60
2022-12-27T08:18:31.659Z,76.70
2022-12-27T08:20:59.706Z,76.60
2022-12-27T08:23:27.762Z,76.60
2022-12-27T08:25:55.869Z,76.40
2022-12-27T08:28:23.904Z,76.60
2022-12-27T08:30:51.940Z,76.60
2022-12-27T08:33:20.114Z,76.70
2022-12-27T08:35:53.966Z,76.60
2022-12-27T08:38:22.525Z,76.80
2022-12-27T08:40:50.648Z,76.60
2022-12-27T08:43:18.683Z,76.60
2022-12-27T08:45:46.825Z,76.70
2022-12-27T08:48:15.563Z,76.40
2022-12-27T08:50:43.640Z,76.70
2022-12-27T08:53:13.048Z,76.70
2022-12-27T08:55:42.036Z,76.70
2022-12-27T08:58:16.016Z,76.60
2022-12-27T09:00:44.487Z,76.70
2022-12-27T09:03:12.604Z,76.60
2022-12-27T09:05:42.041Z,76.60
2022-12-27T09:08:11.967Z,76.50
2022-12-27T09:10:40.053Z,76.70
2022-12-27T09:13:08.063Z,76.40
2022-12-27T09:15:36.179Z,76.70
2022-12-27T09:18:04.216Z,76.70
2022-12-27T09:20:32.424Z,76.50
2022-12-27T09:23:00.497Z,76.60
2022-12-27T09:25:29.913Z,76.80
2022-12-27T09:27:57.947Z,76.60
2022-12-27T09:30:25.944Z,76.60
2022-12-27T09:32:53.987Z,76.70
2022-12-27T09:35:21.989Z,76.60
2022-12-27T09:37:50.886Z,76.60
2022-12-27T09:40:19.061Z,76.70
2022-12-27T09:43:07.261Z,77.00
2022-12-27T09:45:39.458Z,76.60
2022-12-27T09:48:10.559Z,76.50
2022-12-27T09:50:50.737Z,76.70
2022-12-27T09:53:19.952Z,76.70
2022-12-27T09:55:49.026Z,76.70
2022-12-27T09:58:33.327Z,76.70
2022-12-27T10:01:01.419Z,76.70
2022-12-27T10:03:29.546Z,76.80
2022-12-27T10:06:00.860Z,76.80
2022-12-27T10:08:35.595Z,76.80
2022-12-27T10:11:07.010Z,76.70
2022-12-27T10:13:42.805Z,76.90
2022-12-27T10:16:20.921Z,76.90
2022-12-27T10:18:56.084Z,76.80
2022-12-27T10:21:24.767Z,76.80
2022-12-27T10:23:55.543Z,76.80
2022-12-27T10:26:23.972Z,76.90
2022-12-27T10:28:57.266Z,76.80
2022-12-27T10:31:25.550Z,76.90
2022-12-27T10:33:53.599Z,76.80
2022-12-27T10:36:23.773Z,76.90
2022-12-27T10:38:51.782Z,77.00
2022-12-27T10:41:34.552Z,77.20
2022-12-27T10:44:03.915Z,77.00
2022-12-27T10:46:33.604Z,76.90
2022-12-27T10:51:50.668Z,77.10
2022-12-27T10:54:21.971Z,77.20
2022-12-27T10:56:50.020Z,77.10
2022-12-27T10:59:20.331Z,77.20
2022-12-27T11:01:49.972Z,77.10
2022-12-27T11:04:21.130Z,77.20
2022-12-27T11:06:50.299Z,77.10
2022-12-27T11:09:26.622Z,77.20
2022-12-27T11:11:56.468Z,77.30
2022-12-27T11:14:25.832Z,77.30
2022-12-27T11:16:53.897Z,77.30
2022-12-27T11:19:23.922Z,77.30
2022-12-27T11:21:52.287Z,77.30
2022-12-27T11:24:20.349Z,77.50
2022-12-27T11:26:53.979Z,77.50
2022-12-27T11:29:23.133Z,77.40
2022-12-27T11:31:52.579Z,77.40
2022-12-27T11:34:22.404Z,77.30
2022-12-27T11:36:51.091Z,77.60
2022-12-27T11:39:43.560Z,77.50
2022-12-27T11:42:17.435Z,77.40
2022-12-27T11:44:47.268Z,77.60
2022-12-27T11:47:30.584Z,77.40
2022-12-27T11:50:02.167Z,77.60
2022-12-27T11:52:47.503Z,77.70
2022-12-27T11:55:46.613Z,77.60
2022-12-27T11:58:43.559Z,77.60
2022-12-27T12:01:33.553Z,77.50
2022-12-27T12:04:27.148Z,77.60
2022-12-27T12:06:59.382Z,77.60
2022-12-27T12:09:34.795Z,77.70
2022-12-27T12:12:15.748Z,77.70
2022-12-27T12:15:02.375Z,77.70
2022-12-27T12:17:39.695Z,77.80
2022-12-27T12:20:26.521Z,77.80
2022-12-27T12:23:05.786Z,77.80
2022-12-27T12:26:20.091Z,77.80
2022-12-27T12:29:19.229Z,77.90
2022-12-27T12:32:07.679Z,77.90
2022-12-27T12:34:43.957Z,77.90
2022-12-27T12:37:26.678Z,78.00
2022-12-27T12:40:28.900Z,78.00
2022-12-27T12:43:00.624Z,78.00
2022-12-27T12:45:36.764Z,78.00
2022-12-27T12:48:21.235Z,78.10
2022-12-27T12:51:04.081Z,78.00
2022-12-27T12:53:44.193Z,78.10
2022-12-27T12:56:46.384Z,78.10
2022-12-27T12:59:24.164Z,78.10
2022-12-27T13:01:57.886Z,78.10
2022-12-27T13:04:32.884Z,78.20
2022-12-27T13:07:24.061Z,78.20
2022-12-27T13:10:01.624Z,78.20
2022-12-27T13:12:32.725Z,78.30
2022-12-27T13:15:14.565Z,78.30
2022-12-27T13:17:44.807Z,78.30
2022-12-27T13:20:34.934Z,78.30
2022-12-27T13:23:08.607Z,78.40
2022-12-27T13:25:41.827Z,78.20
2022-12-27T13:28:22.449Z,78.40
2022-12-27T13:30:55.241Z,78.40
2022-12-27T13:33:27.066Z,78.40
2022-12-27T13:36:11.286Z,78.40
2022-12-27T13:38:52.202Z,78.40
2022-12-27T13:41:31.143Z,78.40
2022-12-27T13:44:32.821Z,78.40
2022-12-27T13:47:28.353Z,78.40
2022-12-27T13:50:27.012Z,78.40
2022-12-27T13:53:04.828Z,78.40
2022-12-27T13:55:38.069Z,78.50
2022-12-27T13:58:31.819Z,78.40
2022-12-27T14:01:02.533Z,78.50
2022-12-27T14:03:54.723Z,78.50
2022-12-27T14:06:51.682Z,78.50
2022-12-27T14:09:34.607Z,78.40
2022-12-27T14:12:15.823Z,78.40
2022-12-27T14:14:45.250Z,78.50
2022-12-27T14:17:20.951Z,78.50
2022-12-27T14:20:07.314Z,78.60
2022-12-27T14:22:53.784Z,78.50
2022-12-27T14:25:47.038Z,78.50
2022-12-27T14:28:59.922Z,78.60
2022-12-27T14:32:06.647Z,78.60
2022-12-27T14:35:05.261Z,78.60
2022-12-27T14:37:43.760Z,78.60
2022-12-27T14:40:44.296Z,78.60
2022-12-27T14:43:44.698Z,78.60
2022-12-27T14:46:32.036Z,78.60
2022-12-27T14:49:12.317Z,78.60
2022-12-27T14:52:08.718Z,78.60
2022-12-27T14:54:54.550Z,78.50
2022-12-27T14:57:31.732Z,78.50
2022-12-27T15:00:04.195Z,78.50
2022-12-27T15:02:39.787Z,78.60
2022-12-27T15:05:17.909Z,78.50
2022-12-27T15:08:03.433Z,78.50
2022-12-27T15:10:46.585Z,78.60
2022-12-27T15:13:19.927Z,78.60
2022-12-27T15:15:53.150Z,78.60
2022-12-27T15:18:41.419Z,78.60
2022-12-27T15:21:26.943Z,78.60
2022-12-27T15:23:57.803Z,78.60
2022-12-27T15:26:33.623Z,78.40
2022-12-27T15:29:19.622Z,78.50
2022-12-27T15:31:54.308Z,78.60
2022-12-27T15:34:33.137Z,78.50
2022-12-27T15:37:01.689Z,78.60
2022-12-27T15:39:52.152Z,78.50
2022-12-27T15:42:48.571Z,78.60
2022-12-27T15:45:25.171Z,78.60
2022-12-27T15:48:15.271Z,78.50
2022-12-27T15:50:54.241Z,78.50
2022-12-27T15:53:39.111Z,78.60
2022-12-27T15:56:21.161Z,78.50
2022-12-27T15:59:22.594Z,78.50
2022-12-27T16:01:53.001Z,78.60
2022-12-27T16:04:42.994Z,78.50
2022-12-27T16:07:39.039Z,78.60
2022-12-27T16:10:31.930Z,78.60
2022-12-27T16:13:02.706Z,78.50
2022-12-27T16:15:50.998Z,78.50
2022-12-27T16:18:45.809Z,78.50
2022-12-27T16:21:15.201Z,78.50
2022-12-27T16:23:50.601Z,78.50
2022-12-27T16:26:20.686Z,78.50
2022-12-27T16:28:58.209Z,78.60
2022-12-27T16:31:27.330Z,78.40
2022-12-27T16:33:55.795Z,78.40
2022-12-27T16:36:25.672Z,78.30
2022-12-27T16:39:15.847Z,78.40
2022-12-27T16:42:01.169Z,78.40
2022-12-27T16:44:47.603Z,78.40
2022-12-27T16:47:42.648Z,78.30
2022-12-27T16:50:40.961Z,78.40
2022-12-27T16:53:18.600Z,78.30
2022-12-27T16:56:14.859Z,78.30
2022-12-27T16:58:43.155Z,78.30
2022-12-27T17:01:43.605Z,78.30
2022-12-27T17:04:19.122Z,78.30
2022-12-27T17:06:55.262Z,78.30
2022-12-27T17:09:48.112Z,78.20
2022-12-27T17:12:23.216Z,78.20
2022-12-27T17:14:54.713Z,78.10
2022-12-27T17:17:23.725Z,78.10
2022-12-27T17:19:57.098Z,78.10
2022-12-27T17:22:34.696Z,78.20
2022-12-27T17:25:03.693Z,78.10
2022-12-27T17:28:02.173Z,78.00
2022-12-27T17:30:33.174Z,78.20
2022-12-27T17:33:24.954Z,78.10
2022-12-27T17:36:17.687Z,78.10
2022-12-27T17:39:09.984Z,78.20
2022-12-27T17:42:01.627Z,78.00
2022-12-27T17:44:39.158Z,78.00
2022-12-27T17:47:17.596Z,78.00
2022-12-27T17:49:45.716Z,78.00
2022-12-27T17:52:35.817Z,78.00
2022-12-27T17:55:32.944Z,77.90
2022-12-27T17:58:01.513Z,78.00
2022-12-27T18:00:31.132Z,77.90
2022-12-27T18:03:00.703Z,78.00
2022-12-27T18:05:30.040Z,77.80
2022-12-27T18:08:03.539Z,78.00
2022-12-27T18:10:31.645Z,77.90
2022-12-27T18:13:00.476Z,78.00
2022-12-27T18:15:28.995Z,77.80
2022-12-27T18:17:58.691Z,77.80
2022-12-27T18:20:36.368Z,78.00
2022-12-27T18:23:18.921Z,77.90
2022-12-27T18:25:52.238Z,78.00
2022-12-27T18:28:21.122Z,77.90
2022-12-27T18:30:56.513Z,77.90
2022-12-27T18:33:28.638Z,77.90
2022-12-27T18:36:00.757Z,77.80
2022-12-27T18:38:31.479Z,77.80
2022-12-27T18:41:04.150Z,77.90
2022-12-27T18:43:32.368Z,77.80
2022-12-27T18:46:00.528Z,77.90
2022-12-27T18:48:33.572Z,77.90
2022-12-27T18:51:02.913Z,77.80
2022-12-27T18:53:36.976Z,77.80
2022-12-27T18:56:06.526Z,77.80
2022-12-27T18:58:34.570Z,77.70
2022-12-27T19:01:03.616Z,77.70
2022-12-27T19:03:38.273Z,77.70
2022-12-27T19:06:10.209Z,77.70
2022-12-27T19:08:40.505Z,77.70
2022-12-27T19:11:08.714Z,77.80
2022-12-27T19:13:41.792Z,77.70
2022-12-27T19:16:10.445Z,77.70
2022-12-27T19:18:39.284Z,77.50
2022-12-27T19:21:07.831Z,77.70
2022-12-27T19:23:36.822Z,77.70
2022-12-27T19:26:08.895Z,77.70
2022-12-27T19:28:37.017Z,77.50
2022-12-27T19:31:17.774Z,77.60
2022-12-27T19:33:48.210Z,77.50
2022-12-27T19:36:16.255Z,77.60
2022-12-27T19:38:48.065Z,77.60
2022-12-27T19:41:17.713Z,77.40
2022-12-27T19:43:46.391Z,77.40
2022-12-27T19:46:14.972Z,77.50
2022-12-27T19:48:43.850Z,77.40
2022-12-27T19:51:13.004Z,77.40
2022-12-27T19:53:42.114Z,77.30
2022-12-27T19:56:10.276Z,77.40
2022-12-27T19:58:43.874Z,77.40
2022-12-27T20:01:11.956Z,77.30
2022-12-27T20:03:40.064Z,77.40
2022-12-27T20:06:14.688Z,77.30
2022-12-27T20:08:47.498Z,77.30
2022-12-27T20:11:18.223Z,77.20
2022-12-27T20:13:47.698Z,77.30
2022-12-27T20:16:18.136Z,77.10
2022-12-27T20:18:46.258Z,77.20
2022-12-27T20:21:14.501Z,77.20
2022-12-27T20:23:42.571Z,77.00
2022-12-27T20:26:10.681Z,77.10
2022-12-27T20:28:38.756Z,77.10
2022-12-27T20:31:08.815Z,77.10
2022-12-27T20:33:36.994Z,77.00
2022-12-27T20:36:05.525Z,77.10
2022-12-27T20:38:36.566Z,76.90
2022-12-27T20:41:08.621Z,77.00
2022-12-27T20:43:36.861Z,77.00
2022-12-27T20:46:06.235Z,77.00
2022-12-27T20:48:37.849Z,77.10
2022-12-27T20:51:09.176Z,76.90
2022-12-27T20:53:37.343Z,77.00
2022-12-27T20:56:05.929Z,76.90
2022-12-27T20:58:34.670Z,76.90
2022-12-27T21:01:07.411Z,76.60
2022-12-27T21:03:37.099Z,76.90
2022-12-27T21:06:09.510Z,76.90
2022-12-27T21:08:45.484Z,76.80
2022-12-27T21:11:15.772Z,76.50
2022-12-27T21:13:44.486Z,76.80
2022-12-27T21:16:12.915Z,76.60
2022-12-27T21:18:42.332Z,76.60
2022-12-27T21:21:12.435Z,76.50
2022-12-27T21:23:40.773Z,76.70
2022-12-27T21:26:10.580Z,76.60
2022-12-27T21:28:38.729Z,76.60
2022-12-27T21:31:07.334Z,76.60
2022-12-27T21:33:36.010Z,76.50
2022-12-27T21:36:06.590Z,76.50
2022-12-27T21:38:34.682Z,76.60
2022-12-27T21:41:03.662Z,76.50
2022-12-27T21:43:31.708Z,76.50
2022-12-27T21:45:59.866Z,76.40
2022-12-27T21:48:27.971Z,76.60
2022-12-27T21:50:56.000Z,76.60
2022-12-27T21:53:25.405Z,76.50
2022-12-27T21:55:58.405Z,76.50
2022-12-27T21:58:26.500Z,76.50
2022-12-27T22:00:57.912Z,76.50
2022-12-27T22:03:26.341Z,76.40
2022-12-27T22:05:54.571Z,76.50
2022-12-27T22:08:22.622Z,76.40
2022-12-27T22:10:56.838Z,76.50
2022-12-27T22:13:24.853Z,76.40
2022-12-27T22:15:56.832Z,76.30
2022-12-27T22:18:24.915Z,76.30
2022-12-27T22:20:52.984Z,76.30
2022-12-27T22:23:21.013Z,76.40
2022-12-27T22:25:55.905Z,76.50
2022-12-27T22:28:23.957Z,76.50
2022-12-27T22:30:52.000Z,76.20
2022-12-27T22:33:20.005Z,76.30
2022-12-27T22:35:48.125Z,76.20
2022-12-27T22:38:16.152Z,76.30
2022-12-27T22:40:46.563Z,76.30
2022-12-27T22:43:16.432Z,76.30
2022-12-27T22:45:48.873Z,76.20
2022-12-27T22:48:20.024Z,76.30
2022-12-27T22:50:48.061Z,76.40
2022-12-27T22:53:16.092Z,76.30
2022-12-27T22:55:45.468Z,76.30
2022-12-27T22:58:13.494Z,76.30
2022-12-27T23:00:43.396Z,76.20
2022-12-27T23:03:11.399Z,76.20
2022-12-27T23:05:39.425Z,76.30
2022-12-27T23:08:07.452Z,76.20
2022-12-27T23:10:35.965Z,76.30
2022-12-27T23:13:03.986Z,76.40
2022-12-27T23:15:32.061Z,76.30
2022-12-27T23:18:01.493Z,76.30
2022-12-27T23:20:29.595Z,76.40
2022-12-27T23:22:57.616Z,76.10
2022-12-27T23:25:26.228Z,76.20
2022-12-27T23:27:54.269Z,76.20
2022-12-27T23:30:22.998Z,76.20
2022-12-27T23:32:51.027Z,76.20
2022-12-27T23:35:20.438Z,76.40
2022-12-27T23:37:48.513Z,75.90
2022-12-27T23:40:16.668Z,76.00
2022-12-27T23:42:44.703Z,76.00
2022-12-27T23:45:12.746Z,75.80
2022-12-27T23:47:40.868Z,76.00
2022-12-27T23:50:09.605Z,76.10
2022-12-27T23:52:39.013Z,76.10
2022-12-27T23:55:07.955Z,76.10
2022-12-27T23:57:35.978Z,75.80
